Time;durP1;ratioP1;P1;durP2;ratioP2;P2;SDS_P1;SDS_P2;PMS_P1;PMS_P2;Temp;Humidity;BMP_temperature;BMP_pressure;BME280_temperature;BME280_humidity;BME280_pressure;Samples;Min_cycle;Max_cycle;Signal;HPM_P1;HPM_P2
2020/12/22 00:00:43;;;;;;;4.23;2.03;;;;;;;;;;5103195;28;20180;-61
2020/12/22 00:03:10;;;;;;;3.40;2.37;;;;;;;;;;5098192;28;20171;-60
2020/12/22 00:05:36;;;;;;;2.30;1.83;;;;;;;;;;5093347;28;20226;-60
2020/12/22 00:08:09;;;;;;;2.87;1.83;;;;;;;;;;5110918;28;20245;-61
2020/12/22 00:10:35;;;;;;;2.33;2.13;;;;;;;;;;5097501;28;20225;-60
2020/12/22 00:13:01;;;;;;;2.23;1.73;;;;;;;;;;5107193;28;20610;-61
2020/12/22 00:15:27;;;;;;;3.10;2.30;;;;;;;;;;5072993;28;20180;-61
2020/12/22 00:17:53;;;;;;;2.13;1.80;;;;;;;;;;5092565;28;20593;-61
2020/12/22 00:20:20;;;;;;;2.20;1.80;;;;;;;;;;5090360;28;20210;-60
2020/12/22 00:22:49;;;;;;;2.70;2.20;;;;;;;;;;5102214;28;20623;-60
2020/12/22 00:25:15;;;;;;;2.50;1.90;;;;;;;;;;5079261;27;20237;-60
2020/12/22 00:27:41;;;;;;;2.20;1.90;;;;;;;;;;5097043;28;20602;-61
2020/12/22 00:30:07;;;;;;;2.30;2.10;;;;;;;;;;5111498;28;20195;-60
2020/12/22 00:32:34;;;;;;;2.87;2.00;;;;;;;;;;5099200;28;20208;-61
2020/12/22 00:35:00;;;;;;;2.37;1.63;;;;;;;;;;5109353;28;20183;-60
2020/12/22 00:37:26;;;;;;;2.13;1.67;;;;;;;;;;5091338;28;20179;-60
2020/12/22 00:39:52;;;;;;;2.70;1.90;;;;;;;;;;5103936;28;20183;-63
2020/12/22 00:42:18;;;;;;;2.30;1.93;;;;;;;;;;5095034;28;20217;-60
2020/12/22 00:44:44;;;;;;;2.47;2.00;;;;;;;;;;5107191;28;20281;-60
2020/12/22 00:47:11;;;;;;;2.00;1.23;;;;;;;;;;5095845;28;20532;-59
2020/12/22 00:49:37;;;;;;;1.63;1.37;;;;;;;;;;5104249;28;20622;-61
2020/12/22 00:52:03;;;;;;;1.33;1.20;;;;;;;;;;5090507;28;20164;-60
2020/12/22 00:54:29;;;;;;;1.77;1.50;;;;;;;;;;5089747;28;20188;-60
2020/12/22 00:56:56;;;;;;;2.27;1.30;;;;;;;;;;5103696;28;20186;-61
2020/12/22 00:59:22;;;;;;;1.53;1.00;;;;;;;;;;5096050;28;20213;-63
2020/12/22 01:01:48;;;;;;;1.93;1.20;;;;;;;;;;5100603;28;20201;-61
2020/12/22 01:04:14;;;;;;;1.10;1.00;;;;;;;;;;5107176;28;20680;-61
2020/12/22 01:06:41;;;;;;;0.80;0.80;;;;;;;;;;5096828;28;20199;-60
2020/12/22 01:09:07;;;;;;;2.03;1.10;;;;;;;;;;5093113;28;20218;-60
2020/12/22 01:11:40;;;;;;;1.57;0.90;;;;;;;;;;5090643;28;20191;-61
2020/12/22 01:14:06;;;;;;;1.40;1.23;;;;;;;;;;5094573;28;20183;-60
2020/12/22 01:16:33;;;;;;;1.33;1.00;;;;;;;;;;5090483;28;20211;-63
2020/12/22 01:18:59;;;;;;;1.07;0.97;;;;;;;;;;5101321;28;20383;-61
2020/12/22 01:21:25;;;;;;;1.63;1.33;;;;;;;;;;5097280;28;20188;-61
2020/12/22 01:23:51;;;;;;;0.90;0.90;;;;;;;;;;5090367;28;20670;-60
2020/12/22 01:26:21;;;;;;;1.20;1.10;;;;;;;;;;5104923;28;20175;-61
2020/12/22 01:28:47;;;;;;;1.30;1.20;;;;;;;;;;5099696;28;20575;-61
2020/12/22 01:31:19;;;;;;;1.30;1.20;;;;;;;;;;5103630;28;20195;-61
2020/12/22 01:33:45;;;;;;;0.93;0.93;;;;;;;;;;5108936;28;20667;-60
2020/12/22 01:36:11;;;;;;;0.90;0.80;;;;;;;;;;5100164;28;20180;-60
2020/12/22 01:38:37;;;;;;;0.87;0.87;;;;;;;;;;5095741;28;20183;-61
2020/12/22 01:41:03;;;;;;;0.97;0.97;;;;;;;;;;5088087;28;20211;-61
2020/12/22 01:43:29;;;;;;;1.60;1.20;;;;;;;;;;5082416;28;20203;-61
2020/12/22 01:45:55;;;;;;;1.20;1.10;;;;;;;;;;5094377;28;20168;-61
2020/12/22 01:48:22;;;;;;;1.43;0.97;;;;;;;;;;5101445;28;20186;-60
2020/12/22 01:50:48;;;;;;;1.55;1.00;;;;;;;;;;5094293;28;21331;-60
2020/12/22 01:53:14;;;;;;;1.37;1.00;;;;;;;;;;5101698;28;20186;-60
2020/12/22 01:55:42;;;;;;;1.17;1.00;;;;;;;;;;5121422;27;20174;-61
2020/12/22 01:58:08;;;;;;;1.00;0.90;;;;;;;;;;5097419;28;20176;-61
2020/12/22 02:00:34;;;;;;;1.00;0.90;;;;;;;;;;5096104;28;20179;-61
2020/12/22 02:03:00;;;;;;;0.80;0.80;;;;;;;;;;5112860;28;20528;-61
2020/12/22 02:05:26;;;;;;;0.97;0.97;;;;;;;;;;5109384;28;20237;-61
2020/12/22 02:07:52;;;;;;;0.83;0.83;;;;;;;;;;5110332;28;20183;-62
2020/12/22 02:10:18;;;;;;;1.90;0.90;;;;;;;;;;5102815;28;20650;-61
2020/12/22 02:12:44;;;;;;;0.93;0.83;;;;;;;;;;5093546;28;20183;-61
2020/12/22 02:15:10;;;;;;;0.80;0.80;;;;;;;;;;5114030;28;20225;-61
2020/12/22 02:17:36;;;;;;;0.90;0.90;;;;;;;;;;5103278;28;20185;-61
2020/12/22 02:20:04;;;;;;;0.80;0.80;;;;;;;;;;5112763;28;20187;-62
2020/12/22 02:22:30;;;;;;;0.73;0.73;;;;;;;;;;5102763;28;20183;-61
2020/12/22 02:24:56;;;;;;;1.23;0.90;;;;;;;;;;5109572;27;20227;-61
2020/12/22 02:27:22;;;;;;;0.70;0.70;;;;;;;;;;5104792;28;20180;-61
2020/12/22 02:29:48;;;;;;;0.70;0.70;;;;;;;;;;5110166;28;20228;-64
2020/12/22 02:32:14;;;;;;;0.60;0.60;;;;;;;;;;5093159;28;20187;-61
2020/12/22 02:34:40;;;;;;;0.67;0.67;;;;;;;;;;5096251;28;20210;-61
2020/12/22 02:37:06;;;;;;;0.93;0.77;;;;;;;;;;5102328;28;20183;-61
2020/12/22 02:39:32;;;;;;;1.10;1.00;;;;;;;;;;5101199;28;20531;-61
2020/12/22 02:41:58;;;;;;;1.10;0.93;;;;;;;;;;5093013;28;20668;-62
2020/12/22 02:44:24;;;;;;;0.93;0.93;;;;;;;;;;5097896;28;20200;-61
2020/12/22 02:46:51;;;;;;;1.70;1.13;;;;;;;;;;5096988;28;20545;-61
2020/12/22 02:49:17;;;;;;;1.10;1.00;;;;;;;;;;5111889;28;20182;-61
2020/12/22 02:51:43;;;;;;;1.00;0.90;;;;;;;;;;5103958;28;20259;-61
2020/12/22 02:54:09;;;;;;;2.03;1.33;;;;;;;;;;5106751;27;20285;-62
2020/12/22 02:56:35;;;;;;;1.27;1.07;;;;;;;;;;5113364;27;20191;-61
2020/12/22 02:59:01;;;;;;;1.07;0.80;;;;;;;;;;5102584;28;20535;-61
2020/12/22 03:01:27;;;;;;;1.23;1.10;;;;;;;;;;5077115;28;20178;-61
2020/12/22 03:03:53;;;;;;;2.63;0.83;;;;;;;;;;5100410;28;20606;-61
2020/12/22 03:06:19;;;;;;;0.87;0.87;;;;;;;;;;5096652;28;20594;-61
2020/12/22 03:08:45;;;;;;;0.83;0.77;;;;;;;;;;5100430;28;20293;-61
2020/12/22 03:11:11;;;;;;;1.90;1.07;;;;;;;;;;5093967;28;20183;-61
2020/12/22 03:13:37;;;;;;;1.90;1.07;;;;;;;;;;5101217;28;20180;-62
2020/12/22 03:16:03;;;;;;;1.33;1.20;;;;;;;;;;5101318;28;20190;-61
2020/12/22 03:18:29;;;;;;;1.50;1.00;;;;;;;;;;5099400;28;20786;-61
2020/12/22 03:20:55;;;;;;;2.17;1.37;;;;;;;;;;5104505;28;20226;-61
2020/12/22 03:23:21;;;;;;;4.93;1.20;;;;;;;;;;5078925;28;20633;-60
2020/12/22 03:25:47;;;;;;;1.97;1.00;;;;;;;;;;5111252;28;20172;-61
2020/12/22 03:28:13;;;;;;;2.50;1.10;;;;;;;;;;5107460;28;20503;-61
2020/12/22 03:30:40;;;;;;;1.13;1.03;;;;;;;;;;5092482;28;20203;-62
2020/12/22 03:33:06;;;;;;;2.73;1.20;;;;;;;;;;5094716;28;20573;-61
2020/12/22 03:35:32;;;;;;;0.90;0.90;;;;;;;;;;5112420;28;20576;-61
2020/12/22 03:37:58;;;;;;;1.37;1.00;;;;;;;;;;5103118;28;20172;-61
2020/12/22 03:40:26;;;;;;;0.73;0.73;;;;;;;;;;5091944;28;20320;-61
2020/12/22 03:42:52;;;;;;;1.23;1.10;;;;;;;;;;5093940;28;20180;-61
2020/12/22 03:45:18;;;;;;;1.77;1.03;;;;;;;;;;5112245;28;20191;-60
2020/12/22 03:47:44;;;;;;;1.40;1.23;;;;;;;;;;5107316;28;20175;-61
2020/12/22 03:50:11;;;;;;;1.53;0.93;;;;;;;;;;5111315;28;20167;-60
2020/12/22 03:52:37;;;;;;;0.93;0.90;;;;;;;;;;5093842;28;20183;-60
2020/12/22 03:55:04;;;;;;;1.07;0.93;;;;;;;;;;5103380;28;20187;-61
2020/12/22 03:57:30;;;;;;;1.37;1.03;;;;;;;;;;5088236;28;20183;-60
2020/12/22 03:59:56;;;;;;;1.23;1.13;;;;;;;;;;5094979;28;20178;-61
2020/12/22 04:02:22;;;;;;;2.03;1.37;;;;;;;;;;5091775;28;20192;-61
2020/12/22 04:04:48;;;;;;;0.80;0.80;;;;;;;;;;5095285;28;20223;-61
2020/12/22 04:07:14;;;;;;;1.53;1.07;;;;;;;;;;5091685;28;20178;-62
2020/12/22 04:09:40;;;;;;;1.47;0.83;;;;;;;;;;5091727;28;20179;-61
2020/12/22 04:12:06;;;;;;;1.57;1.00;;;;;;;;;;5094024;28;20172;-61
2020/12/22 04:14:32;;;;;;;1.13;1.07;;;;;;;;;;5105822;28;20535;-60
2020/12/22 04:16:58;;;;;;;1.07;0.80;;;;;;;;;;5091844;28;20180;-60
2020/12/22 04:19:24;;;;;;;2.43;1.00;;;;;;;;;;5092196;28;20184;-60
2020/12/22 04:21:51;;;;;;;1.20;1.07;;;;;;;;;;5091925;28;20194;-60
2020/12/22 04:24:17;;;;;;;1.30;1.10;;;;;;;;;;5101320;28;20662;-61
2020/12/22 04:26:43;;;;;;;1.90;1.07;;;;;;;;;;5089897;28;20194;-60
2020/12/22 04:29:09;;;;;;;2.83;1.30;;;;;;;;;;5101313;28;20182;-60
2020/12/22 04:31:35;;;;;;;0.90;0.90;;;;;;;;;;5096578;28;20546;-61
2020/12/22 04:34:01;;;;;;;1.27;1.00;;;;;;;;;;5091053;28;20591;-61
2020/12/22 04:36:27;;;;;;;1.37;1.00;;;;;;;;;;5091330;28;20180;-61
2020/12/22 04:38:54;;;;;;;1.27;1.10;;;;;;;;;;5100990;28;20179;-61
2020/12/22 04:41:20;;;;;;;2.43;0.97;;;;;;;;;;5091913;28;20184;-63
2020/12/22 04:43:47;;;;;;;2.20;1.40;;;;;;;;;;5099243;28;20658;-61
2020/12/22 04:46:17;;;;;;;1.20;0.97;;;;;;;;;;5100183;28;20172;-61
2020/12/22 04:48:43;;;;;;;1.17;0.90;;;;;;;;;;5097031;28;20172;-60
2020/12/22 04:51:10;;;;;;;3.37;1.27;;;;;;;;;;5109515;28;20626;-60
2020/12/22 04:53:37;;;;;;;1.00;1.00;;;;;;;;;;5107068;27;20198;-60
2020/12/22 04:56:05;;;;;;;1.80;0.90;;;;;;;;;;5102115;27;20179;-60
2020/12/22 04:58:31;;;;;;;2.27;1.00;;;;;;;;;;5074687;28;20191;-60
2020/12/22 05:00:57;;;;;;;1.77;0.77;;;;;;;;;;5091102;28;20168;-60
2020/12/22 05:03:24;;;;;;;1.13;1.00;;;;;;;;;;5102332;28;20201;-61
2020/12/22 05:05:50;;;;;;;1.07;1.00;;;;;;;;;;5107598;28;20222;-61
2020/12/22 05:08:16;;;;;;;0.93;0.87;;;;;;;;;;5099287;28;20166;-61
2020/12/22 05:10:47;;;;;;;0.70;0.70;;;;;;;;;;5101507;28;20182;-63
2020/12/22 05:13:13;;;;;;;0.73;0.73;;;;;;;;;;5104714;28;20190;-60
2020/12/22 05:15:43;;;;;;;2.10;0.97;;;;;;;;;;5113572;28;20163;-60
2020/12/22 05:18:09;;;;;;;1.20;0.90;;;;;;;;;;5112685;28;20178;-60
2020/12/22 05:20:39;;;;;;;1.30;0.90;;;;;;;;;;5099668;28;21891;-62
2020/12/22 05:23:08;;;;;;;0.73;0.70;;;;;;;;;;5121911;27;20250;-61
2020/12/22 05:25:34;;;;;;;0.97;0.90;;;;;;;;;;5127073;27;20533;-62
2020/12/22 05:28:00;;;;;;;1.30;1.20;;;;;;;;;;5112228;28;20175;-61
2020/12/22 05:30:26;;;;;;;0.80;0.73;;;;;;;;;;5099535;28;20252;-61
2020/12/22 05:32:53;;;;;;;0.70;0.70;;;;;;;;;;5113409;28;20179;-60
2020/12/22 05:35:19;;;;;;;1.23;0.90;;;;;;;;;;5094800;28;20581;-60
2020/12/22 05:37:47;;;;;;;1.37;1.03;;;;;;;;;;5095308;28;20176;-63
2020/12/22 05:40:13;;;;;;;0.97;0.90;;;;;;;;;;5117644;27;20178;-60
2020/12/22 05:42:39;;;;;;;1.10;1.00;;;;;;;;;;5115838;27;20186;-61
2020/12/22 05:45:06;;;;;;;0.77;0.77;;;;;;;;;;5126114;27;20666;-60
2020/12/22 05:47:32;;;;;;;0.80;0.80;;;;;;;;;;5099903;27;20245;-60
2020/12/22 05:49:59;;;;;;;0.90;0.90;;;;;;;;;;5094698;28;20199;-61
2020/12/22 05:52:26;;;;;;;2.00;1.17;;;;;;;;;;5094139;28;20176;-60
2020/12/22 05:54:53;;;;;;;0.80;0.80;;;;;;;;;;5126081;27;20622;-61
2020/12/22 05:57:20;;;;;;;0.80;0.80;;;;;;;;;;5104465;27;20192;-60
2020/12/22 05:59:46;;;;;;;0.87;0.87;;;;;;;;;;5094021;28;20908;-62
2020/12/22 06:02:22;;;;;;;1.57;1.03;;;;;;;;;;5094512;28;20190;-61
2020/12/22 06:04:49;;;;;;;0.97;0.93;;;;;;;;;;5111013;27;20226;-61
2020/12/22 06:07:15;;;;;;;1.10;1.00;;;;;;;;;;5093811;28;20577;-61
2020/12/22 06:09:41;;;;;;;0.90;0.90;;;;;;;;;;5082538;28;20532;-62
2020/12/22 06:12:08;;;;;;;1.20;1.10;;;;;;;;;;5087956;28;20175;-61
2020/12/22 06:14:34;;;;;;;1.20;1.10;;;;;;;;;;5114463;28;20175;-61
2020/12/22 06:17:07;;;;;;;0.80;0.80;;;;;;;;;;5106028;28;20186;-61
2020/12/22 06:19:36;;;;;;;1.07;0.97;;;;;;;;;;5108860;28;20182;-61
2020/12/22 06:22:03;;;;;;;3.30;1.30;;;;;;;;;;5107497;27;20195;-60
2020/12/22 06:24:29;;;;;;;0.90;0.80;;;;;;;;;;5108496;27;20203;-61
2020/12/22 06:27:01;;;;;;;1.23;1.00;;;;;;;;;;5109689;28;20190;-61
2020/12/22 06:29:28;;;;;;;0.97;0.93;;;;;;;;;;5109901;27;20181;-61
2020/12/22 06:31:54;;;;;;;0.90;0.90;;;;;;;;;;5106574;28;20199;-61
2020/12/22 06:34:23;;;;;;;2.90;1.00;;;;;;;;;;5110433;28;20695;-61
2020/12/22 06:37:02;;;;;;;1.10;1.00;;;;;;;;;;5102860;28;20175;-60
2020/12/22 06:39:44;;;;;;;1.37;1.03;;;;;;;;;;5097092;28;20588;-61
2020/12/22 06:42:10;;;;;;;0.80;0.80;;;;;;;;;;5094147;28;20179;-61
2020/12/22 06:44:36;;;;;;;1.10;1.00;;;;;;;;;;5093988;28;20203;-62
2020/12/22 06:47:03;;;;;;;2.37;1.07;;;;;;;;;;5104400;28;20617;-61
2020/12/22 06:49:48;;;;;;;1.83;0.90;;;;;;;;;;5108722;27;20644;-61
2020/12/22 06:52:30;;;;;;;2.10;1.20;;;;;;;;;;5120939;27;20214;-60
2020/12/22 06:54:56;;;;;;;1.10;1.10;;;;;;;;;;5100048;28;20179;-61
2020/12/22 06:57:52;;;;;;;0.90;0.90;;;;;;;;;;5104807;27;20202;-60
2020/12/22 07:00:27;;;;;;;2.70;0.90;;;;;;;;;;5084439;28;20275;-60
2020/12/22 07:03:09;;;;;;;0.97;0.90;;;;;;;;;;5095569;28;20172;-60
2020/12/22 07:05:42;;;;;;;1.80;1.03;;;;;;;;;;5110290;28;20280;-61
2020/12/22 07:08:08;;;;;;;1.90;1.33;;;;;;;;;;5109082;28;20255;-61
2020/12/22 07:10:45;;;;;;;2.13;1.00;;;;;;;;;;5102590;27;20199;-60
2020/12/22 07:13:12;;;;;;;1.63;1.40;;;;;;;;;;5099625;28;20653;-60
2020/12/22 07:15:45;;;;;;;2.93;1.97;;;;;;;;;;5095064;28;20643;-60
2020/12/22 07:18:14;;;;;;;2.43;1.50;;;;;;;;;;5106541;28;20186;-60
2020/12/22 07:20:41;;;;;;;3.17;1.70;;;;;;;;;;5091216;28;20248;-60
2020/12/22 07:23:07;;;;;;;1.70;1.60;;;;;;;;;;5099035;28;20209;-62
2020/12/22 07:25:33;;;;;;;2.10;1.73;;;;;;;;;;5109764;28;20210;-60
2020/12/22 07:28:01;;;;;;;1.83;1.50;;;;;;;;;;5099206;28;20187;-60
2020/12/22 07:30:27;;;;;;;1.80;1.40;;;;;;;;;;5092632;28;20199;-61
2020/12/22 07:32:54;;;;;;;2.10;1.30;;;;;;;;;;5090565;28;20205;-61
2020/12/22 07:35:20;;;;;;;2.87;1.40;;;;;;;;;;5099988;27;20181;-60
2020/12/22 07:37:46;;;;;;;2.30;1.40;;;;;;;;;;5101858;27;20662;-61
2020/12/22 07:40:12;;;;;;;1.27;1.10;;;;;;;;;;5108837;28;20198;-61
2020/12/22 07:42:38;;;;;;;2.00;1.50;;;;;;;;;;5075652;28;20186;-60
2020/12/22 07:45:08;;;;;;;1.90;1.57;;;;;;;;;;5104292;27;20716;-61
2020/12/22 07:47:34;;;;;;;1.30;1.20;;;;;;;;;;5102112;28;20274;-60
2020/12/22 07:50:16;;;;;;;2.47;1.20;;;;;;;;;;5105902;28;20714;-60
2020/12/22 07:52:43;;;;;;;1.30;1.20;;;;;;;;;;5110472;28;20175;-62
2020/12/22 07:55:09;;;;;;;2.40;1.70;;;;;;;;;;5114769;27;20189;-61
2020/12/22 07:57:37;;;;;;;1.87;1.30;;;;;;;;;;5101125;27;20648;-61
2020/12/22 08:00:09;;;;;;;2.47;1.50;;;;;;;;;;5103233;28;20246;-60
2020/12/22 08:02:36;;;;;;;1.27;1.17;;;;;;;;;;5095978;28;20229;-60
2020/12/22 08:05:12;;;;;;;2.50;1.10;;;;;;;;;;5092607;28;20242;-61
2020/12/22 08:07:39;;;;;;;1.33;1.20;;;;;;;;;;5092170;28;20258;-60
2020/12/22 08:10:25;;;;;;;1.70;1.30;;;;;;;;;;5078314;28;20567;-60
2020/12/22 08:12:53;;;;;;;1.50;1.10;;;;;;;;;;5099652;28;20163;-60
2020/12/22 08:15:19;;;;;;;1.73;1.23;;;;;;;;;;5098893;28;20180;-62
2020/12/22 08:17:47;;;;;;;1.40;1.10;;;;;;;;;;5100052;28;20176;-61
2020/12/22 08:20:13;;;;;;;4.17;1.73;;;;;;;;;;5109479;27;20184;-63
2020/12/22 08:22:41;;;;;;;2.90;1.50;;;;;;;;;;5091530;28;20640;-63
2020/12/22 08:25:07;;;;;;;290.60;29.57;;;;;;;;;;5108927;28;20256;-63
2020/12/22 08:27:33;;;;;;;729.87;74.67;;;;;;;;;;5105224;28;20167;-63
2020/12/22 08:29:59;;;;;;;734.77;81.10;;;;;;;;;;5096281;28;20221;-62
2020/12/22 08:32:26;;;;;;;574.43;60.23;;;;;;;;;;5093938;28;20183;-62
2020/12/22 08:34:53;;;;;;;392.83;43.13;;;;;;;;;;5106803;28;20191;-61
2020/12/22 08:37:28;;;;;;;296.63;34.97;;;;;;;;;;5106928;28;20174;-61
2020/12/22 08:39:55;;;;;;;99.90;10.60;;;;;;;;;;5078122;28;20175;-62
2020/12/22 08:42:21;;;;;;;51.03;8.33;;;;;;;;;;5112486;27;20180;-62
2020/12/22 08:44:51;;;;;;;36.30;4.07;;;;;;;;;;5078568;28;20191;-63
2020/12/22 08:47:18;;;;;;;24.13;4.60;;;;;;;;;;5101813;28;20206;-62
2020/12/22 08:49:44;;;;;;;23.03;4.03;;;;;;;;;;5111276;28;20206;-62
2020/12/22 08:52:11;;;;;;;5.83;2.10;;;;;;;;;;5097776;28;20503;-62
2020/12/22 08:54:37;;;;;;;2.67;1.50;;;;;;;;;;5090793;28;20183;-61
2020/12/22 08:57:09;;;;;;;2.93;1.40;;;;;;;;;;5101474;28;20184;-62
2020/12/22 08:59:35;;;;;;;2.23;1.33;;;;;;;;;;5104975;28;20610;-61
2020/12/22 09:02:01;;;;;;;4.67;2.00;;;;;;;;;;5105851;28;20171;-63
2020/12/22 09:04:28;;;;;;;4.63;1.83;;;;;;;;;;5110321;28;20225;-63
2020/12/22 09:06:55;;;;;;;8.10;2.53;;;;;;;;;;5085218;28;20191;-62
2020/12/22 09:09:31;;;;;;;3.47;1.50;;;;;;;;;;5096998;28;20253;-62
2020/12/22 09:12:03;;;;;;;3.30;1.30;;;;;;;;;;5078920;28;20167;-63
2020/12/22 09:14:37;;;;;;;2.60;1.40;;;;;;;;;;5076042;28;20183;-63
2020/12/22 09:17:03;;;;;;;3.93;1.50;;;;;;;;;;5118170;28;20182;-64
2020/12/22 09:19:50;;;;;;;5.20;2.80;;;;;;;;;;5099222;28;20624;-62
2020/12/22 09:22:17;;;;;;;10.83;2.40;;;;;;;;;;5108756;28;20191;-62
2020/12/22 09:24:43;;;;;;;8.20;1.80;;;;;;;;;;5105016;28;20207;-62
2020/12/22 09:27:10;;;;;;;10.70;1.93;;;;;;;;;;5104751;28;20258;-64
2020/12/22 09:29:37;;;;;;;9.63;1.87;;;;;;;;;;5088381;28;20652;-61
2020/12/22 09:32:04;;;;;;;5.40;2.43;;;;;;;;;;5106986;28;20531;-61
2020/12/22 09:34:30;;;;;;;11.37;2.90;;;;;;;;;;5106370;28;20565;-61
2020/12/22 09:36:58;;;;;;;11.63;1.90;;;;;;;;;;5082511;28;20179;-61
2020/12/22 09:39:25;;;;;;;5.10;1.80;;;;;;;;;;5094158;28;20183;-63
2020/12/22 09:41:51;;;;;;;9.67;1.90;;;;;;;;;;5105036;28;20248;-61
2020/12/22 09:44:17;;;;;;;3.10;1.60;;;;;;;;;;5106314;28;20195;-61
2020/12/22 09:46:46;;;;;;;10.80;2.00;;;;;;;;;;5107347;28;20176;-61
2020/12/22 09:49:12;;;;;;;4.27;1.50;;;;;;;;;;5102033;28;20180;-61
2020/12/22 09:51:38;;;;;;;4.03;2.00;;;;;;;;;;5105975;28;20224;-60
2020/12/22 09:54:04;;;;;;;5.37;2.73;;;;;;;;;;5109445;28;20183;-64
2020/12/22 09:56:31;;;;;;;8.00;2.83;;;;;;;;;;5090786;28;20183;-61
2020/12/22 09:58:57;;;;;;;4.10;2.53;;;;;;;;;;5108079;28;20187;-61
2020/12/22 10:01:24;;;;;;;5.93;2.67;;;;;;;;;;5111595;27;20950;-61
2020/12/22 10:03:50;;;;;;;4.03;2.00;;;;;;;;;;5105244;28;20650;-61
2020/12/22 10:06:20;;;;;;;2.90;2.23;;;;;;;;;;5090404;28;20254;-61
2020/12/22 10:08:47;;;;;;;3.35;2.30;;;;;;;;;;5109765;28;20476;-60
2020/12/22 10:11:13;;;;;;;6.40;2.40;;;;;;;;;;5095853;27;20174;-61
2020/12/22 10:13:39;;;;;;;6.80;2.43;;;;;;;;;;5109700;27;20175;-62
2020/12/22 10:16:06;;;;;;;4.87;1.83;;;;;;;;;;5093450;28;20182;-62
2020/12/22 10:18:32;;;;;;;4.70;2.57;;;;;;;;;;5087629;28;20626;-62
2020/12/22 10:21:00;;;;;;;3.10;1.80;;;;;;;;;;5105891;28;20182;-60
2020/12/22 10:23:26;;;;;;;2.67;1.30;;;;;;;;;;5101340;28;20799;-61
2020/12/22 10:25:52;;;;;;;5.47;2.77;;;;;;;;;;5111800;28;20188;-61
2020/12/22 10:28:18;;;;;;;3.10;1.93;;;;;;;;;;5101391;28;20175;-61
2020/12/22 10:30:44;;;;;;;9.20;1.93;;;;;;;;;;5116558;27;20199;-63
2020/12/22 10:33:10;;;;;;;2.40;1.50;;;;;;;;;;5102854;27;20175;-60
2020/12/22 10:35:36;;;;;;;2.73;1.40;;;;;;;;;;5096081;27;20187;-61
2020/12/22 10:38:02;;;;;;;1.63;1.30;;;;;;;;;;5089315;28;20559;-61
2020/12/22 10:40:29;;;;;;;3.10;1.53;;;;;;;;;;5085806;28;20665;-61
2020/12/22 10:42:55;;;;;;;1.87;1.50;;;;;;;;;;5097400;27;20219;-60
2020/12/22 10:45:21;;;;;;;1.70;1.60;;;;;;;;;;5105748;27;20230;-61
2020/12/22 10:47:47;;;;;;;2.57;1.37;;;;;;;;;;5101739;27;20194;-61
2020/12/22 10:50:13;;;;;;;2.50;1.20;;;;;;;;;;5087665;28;20211;-61
2020/12/22 10:52:39;;;;;;;3.23;1.77;;;;;;;;;;5105238;27;20179;-61
2020/12/22 10:55:05;;;;;;;3.07;1.30;;;;;;;;;;5095391;28;20175;-61
2020/12/22 10:57:31;;;;;;;3.10;1.50;;;;;;;;;;5083971;28;20221;-61
2020/12/22 10:59:57;;;;;;;1.47;1.20;;;;;;;;;;5085663;28;20187;-61
2020/12/22 11:02:23;;;;;;;2.20;1.37;;;;;;;;;;5077848;28;20555;-62
2020/12/22 11:04:53;;;;;;;2.57;1.43;;;;;;;;;;5095711;28;20235;-62
2020/12/22 11:07:26;;;;;;;1.30;1.20;;;;;;;;;;5109237;28;20271;-61
2020/12/22 11:09:53;;;;;;;2.77;1.50;;;;;;;;;;5110134;27;20542;-60
2020/12/22 11:12:19;;;;;;;1.63;1.53;;;;;;;;;;5111554;27;20203;-62
2020/12/22 11:14:45;;;;;;;2.27;1.77;;;;;;;;;;5091037;28;20171;-61
2020/12/22 11:17:11;;;;;;;2.57;2.27;;;;;;;;;;5086642;28;20554;-61
2020/12/22 11:19:37;;;;;;;2.73;2.13;;;;;;;;;;5108314;28;20183;-60
2020/12/22 11:22:03;;;;;;;2.97;2.60;;;;;;;;;;5081996;28;20241;-60
2020/12/22 11:24:30;;;;;;;3.67;3.30;;;;;;;;;;5099929;27;20207;-62
2020/12/22 11:26:56;;;;;;;6.07;3.57;;;;;;;;;;5100237;27;20209;-60
2020/12/22 11:29:22;;;;;;;6.50;3.43;;;;;;;;;;5103229;27;20699;-61
2020/12/22 11:31:50;;;;;;;6.03;3.00;;;;;;;;;;5106845;27;20262;-60
2020/12/22 11:34:19;;;;;;;5.20;3.50;;;;;;;;;;5103243;27;20182;-61
2020/12/22 11:36:53;;;;;;;5.50;2.93;;;;;;;;;;5079751;28;20219;-61
2020/12/22 11:39:20;;;;;;;5.17;3.57;;;;;;;;;;5101559;27;20716;-60
2020/12/22 11:41:46;;;;;;;6.27;2.80;;;;;;;;;;5105556;27;20180;-61
2020/12/22 11:44:12;;;;;;;5.57;3.80;;;;;;;;;;5108294;27;20202;-60
2020/12/22 11:46:38;;;;;;;6.43;3.50;;;;;;;;;;5115947;27;20183;-61
2020/12/22 11:49:05;;;;;;;6.20;3.77;;;;;;;;;;5101417;27;20176;-61
2020/12/22 11:51:31;;;;;;;7.13;4.87;;;;;;;;;;5114787;27;20179;-61
2020/12/22 11:53:57;;;;;;;5.27;3.67;;;;;;;;;;5111562;27;20636;-60
2020/12/22 11:56:23;;;;;;;4.53;3.33;;;;;;;;;;5109059;27;20685;-60
2020/12/22 11:58:49;;;;;;;7.67;3.80;;;;;;;;;;5127036;27;20174;-62
2020/12/22 12:01:15;;;;;;;6.23;3.00;;;;;;;;;;5108795;27;20790;-62
2020/12/22 12:03:42;;;;;;;3.47;2.60;;;;;;;;;;5085564;28;20194;-61
2020/12/22 12:06:09;;;;;;;6.60;3.37;;;;;;;;;;5098961;27;20210;-63
2020/12/22 12:08:35;;;;;;;7.47;2.77;;;;;;;;;;5113696;27;20179;-63
2020/12/22 12:11:01;;;;;;;4.27;2.70;;;;;;;;;;5109962;28;20221;-63
2020/12/22 12:13:27;;;;;;;6.57;2.03;;;;;;;;;;5102922;28;20639;-61
2020/12/22 12:15:53;;;;;;;4.37;2.53;;;;;;;;;;5111882;27;20222;-62
2020/12/22 12:18:19;;;;;;;4.83;3.23;;;;;;;;;;5104785;28;20502;-61
2020/12/22 12:20:45;;;;;;;6.93;3.30;;;;;;;;;;5082339;28;20190;-62
2020/12/22 12:23:11;;;;;;;6.23;3.60;;;;;;;;;;5106266;28;20184;-62
2020/12/22 12:25:37;;;;;;;4.17;3.03;;;;;;;;;;5090517;28;20208;-62
2020/12/22 12:28:03;;;;;;;4.77;2.67;;;;;;;;;;5090209;28;20521;-62
2020/12/22 12:30:29;;;;;;;2.77;2.20;;;;;;;;;;5072650;28;20199;-62
2020/12/22 12:32:55;;;;;;;4.93;2.53;;;;;;;;;;5089917;28;20176;-62
2020/12/22 12:35:21;;;;;;;5.70;2.70;;;;;;;;;;5105248;27;20179;-62
2020/12/22 12:37:47;;;;;;;7.13;2.47;;;;;;;;;;5086578;27;20175;-62
2020/12/22 12:40:13;;;;;;;4.33;2.60;;;;;;;;;;5090824;28;20593;-62
2020/12/22 12:42:39;;;;;;;3.03;2.20;;;;;;;;;;5078231;28;20175;-64
2020/12/22 12:45:05;;;;;;;5.20;2.87;;;;;;;;;;5083245;28;20245;-61
2020/12/22 12:47:31;;;;;;;4.97;3.03;;;;;;;;;;5096144;28;20535;-61
2020/12/22 12:49:57;;;;;;;6.47;2.63;;;;;;;;;;5093418;28;20230;-61
2020/12/22 12:52:25;;;;;;;4.83;3.17;;;;;;;;;;5105668;28;20187;-62
2020/12/22 12:54:51;;;;;;;5.70;2.93;;;;;;;;;;5106466;28;20209;-62
2020/12/22 12:57:17;;;;;;;4.70;2.40;;;;;;;;;;5090275;28;20191;-62
2020/12/22 12:59:43;;;;;;;4.50;2.53;;;;;;;;;;5093392;28;20559;-62
2020/12/22 13:02:09;;;;;;;3.90;2.40;;;;;;;;;;5093646;28;20186;-64
2020/12/22 13:04:35;;;;;;;3.77;2.30;;;;;;;;;;5108488;28;20225;-63
2020/12/22 13:07:01;;;;;;;4.13;2.20;;;;;;;;;;5098323;28;20652;-62
2020/12/22 13:09:27;;;;;;;2.47;2.00;;;;;;;;;;5097581;28;20183;-61
2020/12/22 13:11:53;;;;;;;7.53;2.43;;;;;;;;;;5072964;28;20183;-63
2020/12/22 13:14:19;;;;;;;5.83;2.53;;;;;;;;;;5118675;28;20538;-62
2020/12/22 13:16:45;;;;;;;5.83;3.47;;;;;;;;;;5108985;28;20180;-62
2020/12/22 13:19:11;;;;;;;7.03;3.13;;;;;;;;;;5101375;28;20175;-61
2020/12/22 13:21:41;;;;;;;6.30;2.73;;;;;;;;;;5106568;28;20209;-62
2020/12/22 13:24:08;;;;;;;3.90;2.90;;;;;;;;;;5099768;28;20264;-62
2020/12/22 13:26:41;;;;;;;5.73;2.47;;;;;;;;;;5094967;28;20263;-62
2020/12/22 13:29:07;;;;;;;3.27;2.07;;;;;;;;;;5094348;28;20215;-62
2020/12/22 13:31:33;;;;;;;3.47;2.40;;;;;;;;;;5084881;28;20192;-62
2020/12/22 13:34:00;;;;;;;6.07;2.43;;;;;;;;;;5094333;28;20180;-63
2020/12/22 13:36:26;;;;;;;4.10;2.83;;;;;;;;;;5108664;28;20638;-62
2020/12/22 13:38:52;;;;;;;5.30;2.83;;;;;;;;;;5114099;28;20320;-61
2020/12/22 13:41:18;;;;;;;7.27;2.50;;;;;;;;;;5098065;28;20205;-62
2020/12/22 13:43:44;;;;;;;4.10;3.30;;;;;;;;;;5093729;28;20190;-63
2020/12/22 13:46:10;;;;;;;5.93;2.57;;;;;;;;;;5099735;27;20175;-62
2020/12/22 13:48:37;;;;;;;4.97;3.10;;;;;;;;;;5075581;28;20222;-62
2020/12/22 13:51:03;;;;;;;4.27;3.33;;;;;;;;;;5094881;28;20176;-61
2020/12/22 13:53:32;;;;;;;4.60;2.60;;;;;;;;;;5101017;28;20171;-60
2020/12/22 13:55:58;;;;;;;4.17;2.70;;;;;;;;;;5077509;28;20182;-61
2020/12/22 13:58:25;;;;;;;4.13;3.07;;;;;;;;;;5102920;27;20196;-61
2020/12/22 14:00:51;;;;;;;5.77;2.97;;;;;;;;;;5118145;27;20197;-61
2020/12/22 14:03:17;;;;;;;3.00;2.30;;;;;;;;;;5100340;28;20262;-62
2020/12/22 14:05:43;;;;;;;4.40;2.80;;;;;;;;;;5106683;28;20655;-61
2020/12/22 14:08:09;;;;;;;5.10;2.77;;;;;;;;;;5112191;27;20526;-62
2020/12/22 14:10:35;;;;;;;2.67;1.90;;;;;;;;;;5098178;27;20236;-62
2020/12/22 14:13:01;;;;;;;2.67;2.13;;;;;;;;;;5093214;28;20233;-61
2020/12/22 14:15:27;;;;;;;3.50;2.47;;;;;;;;;;5095724;28;20188;-61
2020/12/22 14:17:53;;;;;;;3.70;2.30;;;;;;;;;;5110897;27;20546;-62
2020/12/22 14:20:19;;;;;;;4.70;2.30;;;;;;;;;;5109555;28;20682;-61
2020/12/22 14:22:45;;;;;;;3.33;2.03;;;;;;;;;;5106792;28;20241;-62
2020/12/22 14:25:11;;;;;;;3.00;2.17;;;;;;;;;;5101077;28;20199;-63
2020/12/22 14:27:38;;;;;;;4.20;1.60;;;;;;;;;;5125079;27;20178;-61
2020/12/22 14:30:04;;;;;;;4.23;2.20;;;;;;;;;;5116690;27;20714;-61
2020/12/22 14:32:30;;;;;;;2.63;1.60;;;;;;;;;;5109232;28;20943;-62
2020/12/22 14:34:56;;;;;;;8.33;1.70;;;;;;;;;;5093155;28;20186;-62
2020/12/22 14:37:22;;;;;;;4.10;1.40;;;;;;;;;;5081707;28;20179;-62
2020/12/22 14:39:48;;;;;;;1.83;1.53;;;;;;;;;;5103996;27;20178;-62
2020/12/22 14:42:14;;;;;;;2.73;1.57;;;;;;;;;;5100351;27;20183;-62